Time;durP1;ratioP1;P1;durP2;ratioP2;P2;SDS_P1;SDS_P2;PMS_P1;PMS_P2;Temp;Humidity;BMP_temperature;BMP_pressure;BME280_temperature;BME280_humidity;BME280_pressure;Samples;Min_cycle;Max_cycle;Signal;HPM_P1;HPM_P2
2022/07/20 00:00:21;;;;;;;5.18;2.63;;;;;;;;;;5028524;28;20686;-67
2022/07/20 00:02:46;;;;;;;5.00;2.75;;;;;;;;;;5028937;28;20185;-68
2022/07/20 00:05:12;;;;;;;4.80;2.50;;;;;;;;;;5032573;28;20304;-67
2022/07/20 00:07:37;;;;;;;8.10;2.60;;;;;;;;;;5037103;28;20182;-68
2022/07/20 00:12:47;;;;;;;8.57;2.78;;;;;;;;;;5045466;28;20189;-68
2022/07/20 00:15:13;;;;;;;5.65;2.70;;;;;;;;;;5031044;28;20639;-68
2022/07/20 00:17:38;;;;;;;9.13;3.42;;;;;;;;;;5026470;28;20179;-68
2022/07/20 00:20:04;;;;;;;3.25;2.88;;;;;;;;;;5037960;28;20555;-68
2022/07/20 00:22:30;;;;;;;9.02;3.22;;;;;;;;;;5038886;28;20243;-68
2022/07/20 00:24:55;;;;;;;8.50;2.83;;;;;;;;;;5032581;28;20296;-68
2022/07/20 00:27:20;;;;;;;8.20;2.60;;;;;;;;;;5028005;28;20182;-68
2022/07/20 00:29:46;;;;;;;5.38;2.65;;;;;;;;;;5034167;28;20231;-67
2022/07/20 00:32:11;;;;;;;6.97;2.70;;;;;;;;;;5027944;28;20665;-68
2022/07/20 00:34:37;;;;;;;4.10;2.78;;;;;;;;;;5028931;28;20174;-68
2022/07/20 00:37:02;;;;;;;5.60;2.70;;;;;;;;;;5028988;28;20190;-68
2022/07/20 00:39:28;;;;;;;5.10;2.80;;;;;;;;;;5028363;28;20181;-68
2022/07/20 00:41:53;;;;;;;7.00;2.83;;;;;;;;;;5024063;28;20205;-68
2022/07/20 00:44:18;;;;;;;4.50;2.90;;;;;;;;;;5029524;28;20700;-68
2022/07/20 00:46:46;;;;;;;6.90;3.00;;;;;;;;;;5026563;28;20247;-68
2022/07/20 00:49:13;;;;;;;8.18;3.20;;;;;;;;;;5032376;28;20196;-68
2022/07/20 00:51:40;;;;;;;4.82;2.63;;;;;;;;;;5027458;28;20183;-67
2022/07/20 00:54:06;;;;;;;8.00;3.10;;;;;;;;;;5048389;28;20633;-67
2022/07/20 00:56:33;;;;;;;4.85;2.97;;;;;;;;;;5024190;28;20171;-68
2022/07/20 00:58:58;;;;;;;5.53;3.08;;;;;;;;;;5033232;28;20301;-67
2022/07/20 01:01:23;;;;;;;5.05;2.60;;;;;;;;;;5028251;28;20284;-67
2022/07/20 01:03:49;;;;;;;4.90;3.20;;;;;;;;;;5025585;28;20192;-67
2022/07/20 01:06:15;;;;;;;5.28;3.10;;;;;;;;;;5027390;28;20627;-67
2022/07/20 01:08:40;;;;;;;4.50;3.00;;;;;;;;;;5031749;28;20201;-67
2022/07/20 01:11:06;;;;;;;6.72;3.05;;;;;;;;;;5021965;28;20658;-67
2022/07/20 01:13:31;;;;;;;3.88;2.72;;;;;;;;;;5018246;28;20190;-67
2022/07/20 01:15:57;;;;;;;5.97;3.13;;;;;;;;;;5034849;28;20189;-67
2022/07/20 01:18:22;;;;;;;6.40;3.20;;;;;;;;;;5024165;28;20183;-67
2022/07/20 01:20:50;;;;;;;4.93;3.17;;;;;;;;;;5027238;28;20181;-68
2022/07/20 01:23:17;;;;;;;7.72;3.38;;;;;;;;;;5019669;28;20251;-68
2022/07/20 01:25:43;;;;;;;4.68;3.10;;;;;;;;;;5039823;28;20204;-68
2022/07/20 01:28:12;;;;;;;3.90;2.83;;;;;;;;;;5036269;28;20182;-68
2022/07/20 01:30:38;;;;;;;6.03;2.80;;;;;;;;;;5036255;28;20309;-68
2022/07/20 01:33:04;;;;;;;5.38;2.78;;;;;;;;;;5025258;28;20213;-68
2022/07/20 01:35:29;;;;;;;8.93;3.47;;;;;;;;;;5023517;28;20205;-67
2022/07/20 01:37:55;;;;;;;3.65;3.05;;;;;;;;;;5025931;28;20194;-67
2022/07/20 01:40:20;;;;;;;5.95;3.38;;;;;;;;;;5036304;28;20177;-68
2022/07/20 01:42:45;;;;;;;6.43;2.78;;;;;;;;;;5033793;28;20263;-67
2022/07/20 01:45:12;;;;;;;5.72;3.20;;;;;;;;;;5033802;28;20676;-67
2022/07/20 01:47:38;;;;;;;5.13;3.05;;;;;;;;;;5026894;28;20178;-68
2022/07/20 01:50:04;;;;;;;4.25;3.38;;;;;;;;;;5037446;28;20188;-67
2022/07/20 01:52:29;;;;;;;5.75;3.08;;;;;;;;;;5020616;28;20186;-68
2022/07/20 01:54:55;;;;;;;4.53;3.00;;;;;;;;;;5038395;28;20180;-68
2022/07/20 01:57:20;;;;;;;5.03;3.25;;;;;;;;;;5019654;28;20190;-68
2022/07/20 01:59:45;;;;;;;3.70;3.13;;;;;;;;;;5029613;28;20646;-67
2022/07/20 02:02:11;;;;;;;5.30;2.95;;;;;;;;;;5024695;28;20182;-68
2022/07/20 02:04:36;;;;;;;6.00;2.88;;;;;;;;;;5021487;28;20285;-68
2022/07/20 02:07:02;;;;;;;5.10;2.92;;;;;;;;;;5032685;28;20285;-67
2022/07/20 02:09:27;;;;;;;6.68;3.45;;;;;;;;;;5022909;28;20178;-68
2022/07/20 02:11:53;;;;;;;3.90;3.22;;;;;;;;;;5017568;28;20551;-67
2022/07/20 02:14:18;;;;;;;6.68;3.10;;;;;;;;;;5027667;28;20650;-67
2022/07/20 02:16:43;;;;;;;5.35;2.95;;;;;;;;;;5019018;28;20182;-67
2022/07/20 02:19:09;;;;;;;8.10;3.30;;;;;;;;;;5034424;28;20583;-67
2022/07/20 02:21:34;;;;;;;8.45;3.47;;;;;;;;;;5030199;28;20182;-67
2022/07/20 02:24:00;;;;;;;6.53;3.70;;;;;;;;;;5029949;28;20185;-67
2022/07/20 02:26:25;;;;;;;6.70;3.47;;;;;;;;;;5037595;28;20391;-67
2022/07/20 02:28:51;;;;;;;3.70;3.15;;;;;;;;;;5044653;28;20173;-67
2022/07/20 02:31:18;;;;;;;7.10;3.30;;;;;;;;;;5029702;28;20680;-67
2022/07/20 02:33:43;;;;;;;7.70;3.17;;;;;;;;;;5030929;28;20205;-68
2022/07/20 02:36:09;;;;;;;8.40;3.00;;;;;;;;;;5029786;28;20186;-67
2022/07/20 02:38:34;;;;;;;4.38;3.45;;;;;;;;;;5031045;28;20232;-68
2022/07/20 02:41:00;;;;;;;6.35;3.17;;;;;;;;;;5030039;28;20261;-67
2022/07/20 02:43:25;;;;;;;7.20;3.63;;;;;;;;;;5024110;28;20178;-68
2022/07/20 02:45:51;;;;;;;9.15;3.60;;;;;;;;;;5016679;28;20663;-67
2022/07/20 02:48:16;;;;;;;9.35;4.00;;;;;;;;;;5033578;28;20196;-67
2022/07/20 02:50:42;;;;;;;5.13;3.70;;;;;;;;;;5037735;28;20265;-67
2022/07/20 02:53:12;;;;;;;4.55;3.40;;;;;;;;;;5030368;28;20190;-67
2022/07/20 02:55:39;;;;;;;4.72;3.38;;;;;;;;;;5028329;28;20178;-67
2022/07/20 02:58:05;;;;;;;7.53;3.70;;;;;;;;;;5024346;28;20260;-68
2022/07/20 03:00:31;;;;;;;5.60;3.30;;;;;;;;;;5034077;28;20200;-68
2022/07/20 03:02:56;;;;;;;4.68;3.60;;;;;;;;;;5028492;28;20661;-67
2022/07/20 03:05:22;;;;;;;4.43;3.17;;;;;;;;;;5030084;28;20903;-68
2022/07/20 03:07:47;;;;;;;4.85;3.40;;;;;;;;;;5020380;28;20175;-67
2022/07/20 03:10:13;;;;;;;7.05;3.65;;;;;;;;;;5014559;28;20193;-67
2022/07/20 03:12:39;;;;;;;6.55;3.20;;;;;;;;;;5019534;28;20185;-67
2022/07/20 03:15:05;;;;;;;6.70;3.40;;;;;;;;;;5020030;28;20186;-67
2022/07/20 03:17:30;;;;;;;5.43;3.20;;;;;;;;;;5024015;28;20217;-67
2022/07/20 03:19:56;;;;;;;5.32;3.22;;;;;;;;;;5028564;28;20213;-67
2022/07/20 03:22:21;;;;;;;5.72;3.33;;;;;;;;;;5029686;28;20217;-67
2022/07/20 03:24:46;;;;;;;4.70;3.17;;;;;;;;;;5026415;28;20206;-68
2022/07/20 03:27:12;;;;;;;8.32;3.72;;;;;;;;;;5032801;28;20186;-68
2022/07/20 03:29:37;;;;;;;6.30;3.80;;;;;;;;;;5041884;28;20243;-67
2022/07/20 03:32:04;;;;;;;4.97;3.60;;;;;;;;;;5024537;28;20427;-67
2022/07/20 03:34:29;;;;;;;9.75;3.95;;;;;;;;;;5026633;28;20178;-67
2022/07/20 03:36:54;;;;;;;6.22;3.40;;;;;;;;;;5029241;28;20189;-67
2022/07/20 03:39:20;;;;;;;4.43;3.15;;;;;;;;;;5032123;28;20178;-68
2022/07/20 03:41:45;;;;;;;3.78;3.38;;;;;;;;;;5018510;28;20190;-67
2022/07/20 03:44:11;;;;;;;6.82;3.70;;;;;;;;;;5024157;28;20206;-67
2022/07/20 03:46:36;;;;;;;4.65;3.28;;;;;;;;;;5034335;28;20182;-67
2022/07/20 03:49:02;;;;;;;5.40;3.53;;;;;;;;;;5029468;28;20248;-67
2022/07/20 03:51:27;;;;;;;7.78;3.50;;;;;;;;;;5041472;28;20186;-67
2022/07/20 03:53:53;;;;;;;4.93;3.30;;;;;;;;;;5033447;28;20186;-67
2022/07/20 03:56:18;;;;;;;4.38;3.40;;;;;;;;;;5041307;28;20236;-67
2022/07/20 03:58:44;;;;;;;9.13;3.83;;;;;;;;;;5035349;28;20270;-68
2022/07/20 04:01:09;;;;;;;4.35;3.42;;;;;;;;;;5045708;28;20222;-67
2022/07/20 04:03:35;;;;;;;5.20;3.47;;;;;;;;;;5037870;28;20189;-68
2022/07/20 04:06:01;;;;;;;6.32;3.50;;;;;;;;;;5043112;28;20594;-67
2022/07/20 04:08:26;;;;;;;5.18;3.45;;;;;;;;;;5042548;28;20177;-67
2022/07/20 04:10:52;;;;;;;6.10;3.45;;;;;;;;;;5039268;28;20217;-68
2022/07/20 04:13:17;;;;;;;4.85;3.63;;;;;;;;;;5031782;28;20174;-68
2022/07/20 04:15:42;;;;;;;6.45;3.83;;;;;;;;;;5046017;28;20267;-67
2022/07/20 04:18:08;;;;;;;5.28;3.83;;;;;;;;;;5041178;28;20181;-68
2022/07/20 04:20:33;;;;;;;7.93;3.67;;;;;;;;;;5046459;28;20212;-67
2022/07/20 04:22:58;;;;;;;6.63;4.03;;;;;;;;;;5031897;28;20174;-68
2022/07/20 04:25:24;;;;;;;6.28;3.72;;;;;;;;;;5041859;28;20684;-68
2022/07/20 04:27:50;;;;;;;5.55;3.53;;;;;;;;;;5028502;28;20228;-68
2022/07/20 04:30:15;;;;;;;4.47;3.85;;;;;;;;;;5042435;28;20221;-68
2022/07/20 04:32:41;;;;;;;4.07;3.10;;;;;;;;;;5032386;28;20244;-68
2022/07/20 04:35:07;;;;;;;7.30;3.90;;;;;;;;;;5035989;28;20606;-68
2022/07/20 04:37:32;;;;;;;9.75;3.55;;;;;;;;;;5025829;28;20186;-68
2022/07/20 04:39:58;;;;;;;6.75;3.55;;;;;;;;;;5036951;28;20265;-68
2022/07/20 04:42:23;;;;;;;8.73;3.90;;;;;;;;;;5026718;28;20277;-68
2022/07/20 04:44:48;;;;;;;6.18;3.58;;;;;;;;;;5023334;28;20292;-68
2022/07/20 04:47:14;;;;;;;5.05;3.78;;;;;;;;;;5033091;28;20189;-68
2022/07/20 04:49:39;;;;;;;6.75;3.72;;;;;;;;;;5026801;28;20194;-68
2022/07/20 04:52:04;;;;;;;5.35;3.63;;;;;;;;;;5031093;28;20182;-68
2022/07/20 04:54:30;;;;;;;6.57;3.55;;;;;;;;;;5035556;28;20186;-68
2022/07/20 04:56:55;;;;;;;5.55;4.05;;;;;;;;;;5027005;28;20190;-68
2022/07/20 04:59:21;;;;;;;6.32;4.05;;;;;;;;;;5035986;28;20181;-68
2022/07/20 05:01:46;;;;;;;7.35;4.07;;;;;;;;;;5043367;28;20189;-68
2022/07/20 05:04:12;;;;;;;7.35;4.07;;;;;;;;;;5034936;28;20213;-69
2022/07/20 05:06:37;;;;;;;3.97;3.33;;;;;;;;;;5040675;28;20678;-68
2022/07/20 05:09:03;;;;;;;4.70;3.38;;;;;;;;;;5030274;28;20621;-69
2022/07/20 05:11:29;;;;;;;7.05;3.80;;;;;;;;;;5038233;28;20276;-68
2022/07/20 05:13:55;;;;;;;3.95;3.35;;;;;;;;;;5026201;28;20181;-69
2022/07/20 05:16:20;;;;;;;6.47;3.83;;;;;;;;;;5035307;28;20185;-69
2022/07/20 05:18:46;;;;;;;8.07;3.85;;;;;;;;;;5035447;28;20189;-68
2022/07/20 05:21:11;;;;;;;4.13;3.60;;;;;;;;;;5041924;28;20177;-69
2022/07/20 05:23:36;;;;;;;4.60;3.38;;;;;;;;;;5038905;28;20185;-68
2022/07/20 05:26:03;;;;;;;4.22;3.78;;;;;;;;;;5039653;28;20189;-69
2022/07/20 05:28:29;;;;;;;5.40;3.70;;;;;;;;;;5033535;28;20190;-69
2022/07/20 05:30:55;;;;;;;8.50;3.78;;;;;;;;;;5035008;28;20230;-69
2022/07/20 05:33:20;;;;;;;7.35;3.58;;;;;;;;;;5038968;28;20319;-69
2022/07/20 05:35:49;;;;;;;5.63;3.90;;;;;;;;;;5032195;28;20580;-69
2022/07/20 05:38:15;;;;;;;8.30;3.95;;;;;;;;;;5028271;28;20272;-69
2022/07/20 05:40:40;;;;;;;8.25;3.50;;;;;;;;;;5026871;28;20328;-68
2022/07/20 05:43:05;;;;;;;6.90;3.80;;;;;;;;;;5016235;28;20187;-68
2022/07/20 05:45:31;;;;;;;7.97;3.58;;;;;;;;;;5021992;28;20218;-68
2022/07/20 05:47:56;;;;;;;5.93;3.90;;;;;;;;;;5039286;28;20272;-68
2022/07/20 05:50:21;;;;;;;6.88;3.80;;;;;;;;;;5041417;28;20534;-66
2022/07/20 05:52:47;;;;;;;4.63;3.75;;;;;;;;;;5035327;28;20185;-66
2022/07/20 05:55:12;;;;;;;5.47;3.28;;;;;;;;;;5040768;28;20206;-65
2022/07/20 05:57:38;;;;;;;6.32;3.80;;;;;;;;;;5041264;28;20177;-65
2022/07/20 06:00:04;;;;;;;6.10;4.00;;;;;;;;;;5042243;28;20185;-67
2022/07/20 06:02:29;;;;;;;5.45;4.22;;;;;;;;;;5045536;28;20186;-65
2022/07/20 06:04:55;;;;;;;5.53;3.65;;;;;;;;;;5038591;28;20247;-65
2022/07/20 06:07:20;;;;;;;9.15;4.30;;;;;;;;;;5026492;28;20692;-63
2022/07/20 06:09:45;;;;;;;5.85;3.85;;;;;;;;;;5043861;28;20251;-65
2022/07/20 06:12:11;;;;;;;9.38;3.90;;;;;;;;;;5042238;28;20235;-65
2022/07/20 06:14:36;;;;;;;8.27;4.15;;;;;;;;;;5046485;28;20181;-65
2022/07/20 06:17:01;;;;;;;9.60;4.10;;;;;;;;;;5045423;28;20188;-64
2022/07/20 06:19:27;;;;;;;6.82;4.18;;;;;;;;;;5047251;28;20276;-64
2022/07/20 06:21:53;;;;;;;12.20;4.72;;;;;;;;;;5043502;28;20793;-64
2022/07/20 06:24:18;;;;;;;8.35;4.65;;;;;;;;;;5046380;28;20224;-66
2022/07/20 06:26:45;;;;;;;11.77;4.88;;;;;;;;;;5045932;28;20181;-66
2022/07/20 06:29:10;;;;;;;6.95;4.68;;;;;;;;;;5040320;28;20182;-68
2022/07/20 06:31:35;;;;;;;10.07;5.00;;;;;;;;;;5044145;28;20233;-66
2022/07/20 06:34:02;;;;;;;9.52;5.35;;;;;;;;;;5041039;28;20196;-65
2022/07/20 06:36:28;;;;;;;13.07;5.55;;;;;;;;;;5041661;28;20272;-65
2022/07/20 06:38:54;;;;;;;10.15;5.63;;;;;;;;;;5041713;28;20225;-66
2022/07/20 06:41:19;;;;;;;9.82;5.25;;;;;;;;;;5034061;28;20208;-66
2022/07/20 06:43:45;;;;;;;9.82;6.00;;;;;;;;;;5036476;28;20184;-67
2022/07/20 06:46:10;;;;;;;11.18;5.45;;;;;;;;;;5025207;28;20198;-66
2022/07/20 06:48:36;;;;;;;14.25;6.57;;;;;;;;;;5024044;28;20526;-66
2022/07/20 06:51:02;;;;;;;17.77;6.43;;;;;;;;;;5038102;28;20177;-66
2022/07/20 06:53:27;;;;;;;13.32;6.22;;;;;;;;;;5033015;28;20665;-67
2022/07/20 06:55:53;;;;;;;12.20;6.85;;;;;;;;;;5021637;28;20226;-68
2022/07/20 06:58:18;;;;;;;10.95;7.20;;;;;;;;;;5028323;28;20630;-66
2022/07/20 07:00:43;;;;;;;11.50;6.88;;;;;;;;;;5035291;28;20214;-67
2022/07/20 07:03:09;;;;;;;12.35;7.47;;;;;;;;;;5025957;28;20260;-67
2022/07/20 07:05:34;;;;;;;9.57;7.00;;;;;;;;;;5017679;28;20260;-67
2022/07/20 07:08:00;;;;;;;12.20;8.45;;;;;;;;;;5012956;28;20191;-67
2022/07/20 07:10:25;;;;;;;14.45;8.05;;;;;;;;;;5013998;28;20487;-67
2022/07/20 07:12:51;;;;;;;9.20;6.53;;;;;;;;;;5027489;28;20192;-66
2022/07/20 07:15:17;;;;;;;14.73;8.05;;;;;;;;;;5022732;28;20175;-67
2022/07/20 07:17:42;;;;;;;14.20;8.80;;;;;;;;;;5024067;28;20190;-66
2022/07/20 07:20:08;;;;;;;15.07;8.25;;;;;;;;;;5028016;28;20177;-66
2022/07/20 07:22:34;;;;;;;12.48;8.75;;;;;;;;;;5036963;28;20186;-65
2022/07/20 07:25:00;;;;;;;13.90;8.20;;;;;;;;;;5043990;28;20193;-64
2022/07/20 07:27:25;;;;;;;16.45;10.02;;;;;;;;;;5027765;28;20589;-64
2022/07/20 07:29:50;;;;;;;17.33;8.95;;;;;;;;;;5027953;28;20352;-64
2022/07/20 07:32:16;;;;;;;16.52;11.00;;;;;;;;;;5028513;28;20275;-66
2022/07/20 07:34:41;;;;;;;19.73;10.38;;;;;;;;;;5023507;28;20308;-67
2022/07/20 07:37:07;;;;;;;20.33;11.48;;;;;;;;;;5020717;28;20551;-68
2022/07/20 07:39:32;;;;;;;19.17;12.27;;;;;;;;;;5015194;28;20208;-67
2022/07/20 07:41:58;;;;;;;15.40;11.90;;;;;;;;;;5022373;28;20427;-64
2022/07/20 07:44:23;;;;;;;24.17;12.75;;;;;;;;;;5030348;28;20201;-67
2022/07/20 07:46:48;;;;;;;21.30;13.40;;;;;;;;;;5028021;28;20190;-66
2022/07/20 07:49:14;;;;;;;21.35;14.23;;;;;;;;;;5015727;28;20221;-66
2022/07/20 07:51:39;;;;;;;23.80;14.25;;;;;;;;;;5027459;28;20227;-65
2022/07/20 07:54:05;;;;;;;18.98;14.23;;;;;;;;;;5033086;28;20190;-65
2022/07/20 07:56:31;;;;;;;26.73;15.18;;;;;;;;;;5029905;28;20178;-67
2022/07/20 07:58:56;;;;;;;24.40;16.85;;;;;;;;;;5028057;28;20182;-67
2022/07/20 08:01:22;;;;;;;29.58;17.50;;;;;;;;;;5021058;28;20497;-68
2022/07/20 08:03:47;;;;;;;28.45;18.23;;;;;;;;;;5021895;28;20182;-68
2022/07/20 08:06:12;;;;;;;24.83;17.48;;;;;;;;;;5036102;28;20206;-68
2022/07/20 08:08:38;;;;;;;23.30;16.58;;;;;;;;;;4329216;28;10000731;-65
2022/07/20 08:11:04;;;;;;;23.08;17.13;;;;;;;;;;5010873;28;20187;-67
2022/07/20 08:13:29;;;;;;;29.95;18.23;;;;;;;;;;5028522;28;20182;-67
2022/07/20 08:15:55;;;;;;;27.40;18.50;;;;;;;;;;5030545;28;20174;-66
2022/07/20 08:18:20;;;;;;;29.90;19.63;;;;;;;;;;5020618;28;20182;-67
2022/07/20 08:20:46;;;;;;;26.92;20.00;;;;;;;;;;5024841;28;20703;-68
2022/07/20 08:23:12;;;;;;;33.15;20.60;;;;;;;;;;5022867;28;20205;-69
2022/07/20 08:25:38;;;;;;;27.35;21.13;;;;;;;;;;5028735;28;20287;-69
2022/07/20 08:28:15;;;;;;;27.80;21.05;;;;;;;;;;5036757;28;20301;-66
2022/07/20 08:30:42;;;;;;;30.20;21.00;;;;;;;;;;5027842;28;20233;-67
2022/07/20 08:33:08;;;;;;;33.20;21.20;;;;;;;;;;5019389;28;20261;-67
2022/07/20 08:35:34;;;;;;;28.83;20.95;;;;;;;;;;5030155;28;20323;-67
2022/07/20 08:38:00;;;;;;;33.47;21.05;;;;;;;;;;5025777;28;20474;-67
2022/07/20 08:40:26;;;;;;;32.17;21.45;;;;;;;;;;5026721;28;20208;-69
2022/07/20 08:42:52;;;;;;;29.13;20.67;;;;;;;;;;5034596;28;20232;-67
2022/07/20 08:45:17;;;;;;;32.53;22.65;;;;;;;;;;5014152;28;20198;-67
2022/07/20 08:47:44;;;;;;;29.33;20.42;;;;;;;;;;5016546;28;20242;-68
2022/07/20 08:50:10;;;;;;;31.10;20.75;;;;;;;;;;5024986;28;20270;-68
2022/07/20 08:52:35;;;;;;;26.10;20.52;;;;;;;;;;5019607;28;20587;-68
2022/07/20 08:55:01;;;;;;;29.70;22.73;;;;;;;;;;5017943;28;20332;-69
2022/07/20 08:57:26;;;;;;;28.60;21.20;;;;;;;;;;5031979;28;20227;-69
2022/07/20 08:59:51;;;;;;;26.60;20.58;;;;;;;;;;5033385;28;20653;-68
2022/07/20 09:02:17;;;;;;;30.83;21.63;;;;;;;;;;5031026;28;20196;-66
2022/07/20 09:04:49;;;;;;;31.92;20.52;;;;;;;;;;5018943;28;20537;-68
2022/07/20 09:07:14;;;;;;;33.42;21.33;;;;;;;;;;5022861;28;20198;-66
2022/07/20 09:09:39;;;;;;;27.67;21.63;;;;;;;;;;5023555;28;20184;-69
2022/07/20 09:12:05;;;;;;;27.00;20.77;;;;;;;;;;5029099;28;20653;-68
2022/07/20 09:14:48;;;;;;;29.75;21.60;;;;;;;;;;5028948;28;20538;-70
2022/07/20 09:17:20;;;;;;;28.67;21.15;;;;;;;;;;5026097;28;20555;-69
2022/07/20 09:20:07;;;;;;;33.92;21.50;;;;;;;;;;5033397;28;20197;-67
2022/07/20 09:22:39;;;;;;;31.02;20.90;;;;;;;;;;5041494;28;20660;-68
2022/07/20 09:25:06;;;;;;;34.83;21.95;;;;;;;;;;5034696;28;20262;-66
2022/07/20 09:27:35;;;;;;;30.27;22.10;;;;;;;;;;5037686;28;20270;-66
2022/07/20 09:30:18;;;;;;;27.48;20.52;;;;;;;;;;5027805;28;20240;-67
2022/07/20 09:32:55;;;;;;;26.92;21.58;;;;;;;;;;5033594;28;20200;-67
2022/07/20 09:35:23;;;;;;;29.52;21.10;;;;;;;;;;5033093;28;20177;-70
2022/07/20 09:37:49;;;;;;;29.65;21.52;;;;;;;;;;5035750;28;20273;-66
2022/07/20 09:40:14;;;;;;;28.38;20.92;;;;;;;;;;5032170;28;20271;-69
2022/07/20 09:42:42;;;;;;;28.23;21.10;;;;;;;;;;5038411;28;20239;-67
2022/07/20 09:45:28;;;;;;;28.67;21.35;;;;;;;;;;5041009;28;20205;-67
2022/07/20 09:48:03;;;;;;;24.40;20.70;;;;;;;;;;5039904;28;20276;-66
2022/07/20 09:50:31;;;;;;;30.17;19.98;;;;;;;;;;5038546;28;20177;-67
2022/07/20 09:52:57;;;;;;;23.00;18.63;;;;;;;;;;5041556;28;20190;-69
2022/07/20 09:55:22;;;;;;;29.40;19.88;;;;;;;;;;5033721;28;20189;-68
2022/07/20 09:57:51;;;;;;;24.23;18.85;;;;;;;;;;5042112;28;20181;-69
2022/07/20 10:00:17;;;;;;;23.95;18.90;;;;;;;;;;5039674;28;20304;-68
2022/07/20 10:02:46;;;;;;;25.95;18.73;;;;;;;;;;4684053;28;10000449;-69
2022/07/20 10:05:13;;;;;;;22.30;17.67;;;;;;;;;;5028692;28;20208;-69
2022/07/20 10:07:39;;;;;;;25.77;18.02;;;;;;;;;;5035435;28;20216;-68
2022/07/20 10:10:05;;;;;;;22.20;16.50;;;;;;;;;;5038677;28;20202;-70
2022/07/20 10:12:31;;;;;;;22.17;15.95;;;;;;;;;;4683539;28;9999997;-70
2022/07/20 10:14:59;;;;;;;24.27;16.50;;;;;;;;;;5036437;28;20182;-67
2022/07/20 10:17:25;;;;;;;19.13;15.35;;;;;;;;;;5040380;28;20194;-67
2022/07/20 10:19:50;;;;;;;21.83;15.23;;;;;;;;;;5036508;28;20186;-72
2022/07/20 10:22:16;;;;;;;20.90;15.68;;;;;;;;;;5042666;28;20604;-72
2022/07/20 10:24:47;;;;;;;23.65;15.18;;;;;;;;;;5037153;28;20201;-68
2022/07/20 10:27:13;;;;;;;19.67;15.35;;;;;;;;;;5034380;28;20186;-70
2022/07/20 10:29:41;;;;;;;22.45;15.93;;;;;;;;;;5036815;28;20556;-67
2022/07/20 10:32:09;;;;;;;22.08;16.27;;;;;;;;;;5040234;28;20251;-70
2022/07/20 10:34:38;;;;;;;23.23;15.52;;;;;;;;;;5034637;28;20185;-70
2022/07/20 10:37:36;;;;;;;19.70;16.45;;;;;;;;;;5030340;28;20475;-67
2022/07/20 10:40:22;;;;;;;20.85;15.77;;;;;;;;;;5027404;28;20627;-71
2022/07/20 10:43:11;;;;;;;25.25;15.63;;;;;;;;;;5030297;28;20197;-69
2022/07/20 10:45:37;;;;;;;22.40;16.60;;;;;;;;;;5035460;28;20213;-74
2022/07/20 10:48:16;;;;;;;20.88;16.20;;;;;;;;;;5019333;28;20195;-71
2022/07/20 10:50:49;;;;;;;21.98;16.52;;;;;;;;;;5041260;28;20177;-69
2022/07/20 10:53:14;;;;;;;28.42;17.30;;;;;;;;;;5026622;28;20564;-69
2022/07/20 10:55:55;;;;;;;24.33;17.38;;;;;;;;;;5019880;28;20209;-66
2022/07/20 10:58:31;;;;;;;24.10;17.15;;;;;;;;;;5021328;28;20276;-68
2022/07/20 11:01:02;;;;;;;23.13;16.73;;;;;;;;;;5036116;28;20192;-71
2022/07/20 11:03:34;;;;;;;22.75;16.20;;;;;;;;;;5029119;28;20192;-72
2022/07/20 11:06:03;;;;;;;21.73;16.40;;;;;;;;;;5022387;28;20197;-69
2022/07/20 11:08:28;;;;;;;22.02;16.13;;;;;;;;;;5029925;28;20332;-69
2022/07/20 11:10:55;;;;;;;22.35;16.00;;;;;;;;;;5034599;28;20695;-69
2022/07/20 11:13:21;;;;;;;18.50;14.90;;;;;;;;;;5021807;28;20378;-68
2022/07/20 11:15:52;;;;;;;19.45;14.23;;;;;;;;;;5031274;28;20622;-70
2022/07/20 11:18:20;;;;;;;18.52;14.20;;;;;;;;;;5027308;28;20182;-66
2022/07/20 11:20:57;;;;;;;16.60;13.77;;;;;;;;;;5017872;28;20178;-67
2022/07/20 11:23:28;;;;;;;25.98;13.70;;;;;;;;;;5027348;28;20184;-66
2022/07/20 11:25:59;;;;;;;20.25;14.85;;;;;;;;;;5027414;28;20289;-69
2022/07/20 11:28:29;;;;;;;17.42;12.82;;;;;;;;;;5033415;28;20276;-68
2022/07/20 11:30:57;;;;;;;19.08;13.85;;;;;;;;;;5017991;28;20229;-68
2022/07/20 11:33:29;;;;;;;14.27;12.77;;;;;;;;;;5035747;28;20836;-67
2022/07/20 11:35:56;;;;;;;19.45;12.52;;;;;;;;;;5023856;28;21081;-67
2022/07/20 11:38:22;;;;;;;16.38;11.43;;;;;;;;;;5031566;28;20181;-68
2022/07/20 11:41:00;;;;;;;16.02;10.75;;;;;;;;;;5034141;28;20181;-70
2022/07/20 11:43:25;;;;;;;13.80;11.77;;;;;;;;;;5018697;28;20188;-69
2022/07/20 11:45:51;;;;;;;16.25;11.73;;;;;;;;;;5026712;28;20698;-68
2022/07/20 11:48:22;;;;;;;17.63;10.10;;;;;;;;;;5021175;28;20278;-68
2022/07/20 11:50:48;;;;;;;14.90;9.55;;;;;;;;;;5031090;28;20366;-68
2022/07/20 11:53:28;;;;;;;13.23;10.70;;;;;;;;;;5021325;28;20216;-67
2022/07/20 11:55:55;;;;;;;14.23;10.38;;;;;;;;;;5018414;28;20197;-69
2022/07/20 11:58:28;;;;;;;15.07;9.35;;;;;;;;;;5027345;28;20185;-66
2022/07/20 12:00:54;;;;;;;17.02;10.20;;;;;;;;;;5040273;28;20180;-67
2022/07/20 12:03:23;;;;;;;13.23;9.90;;;;;;;;;;5033526;28;20188;-68
2022/07/20 12:05:48;;;;;;;14.07;9.73;;;;;;;;;;5037664;28;20595;-66
2022/07/20 12:08:14;;;;;;;20.20;10.80;;;;;;;;;;5033656;28;20184;-68
2022/07/20 12:10:44;;;;;;;10.93;9.45;;;;;;;;;;5034881;28;20188;-69
2022/07/20 12:13:10;;;;;;;11.85;9.65;;;;;;;;;;5034560;28;20193;-65
2022/07/20 12:15:36;;;;;;;11.05;8.93;;;;;;;;;;5037020;28;20173;-66
2022/07/20 12:18:01;;;;;;;11.98;9.38;;;;;;;;;;5040780;28;20260;-67
2022/07/20 12:20:27;;;;;;;11.25;8.65;;;;;;;;;;5030604;28;20184;-66
2022/07/20 12:22:55;;;;;;;10.65;8.38;;;;;;;;;;5030486;28;20196;-67
2022/07/20 12:25:21;;;;;;;11.40;8.52;;;;;;;;;;5035497;28;20280;-66
2022/07/20 12:27:47;;;;;;;10.88;7.72;;;;;;;;;;5039757;28;20196;-67
2022/07/20 12:30:23;;;;;;;8.93;7.63;;;;;;;;;;5037859;28;20232;-65
2022/07/20 12:33:11;;;;;;;14.68;8.77;;;;;;;;;;5039756;28;20235;-65
2022/07/20 12:35:38;;;;;;;9.32;7.55;;;;;;;;;;5038950;28;20231;-66
2022/07/20 12:38:04;;;;;;;10.20;6.78;;;;;;;;;;5038239;28;20185;-68
2022/07/20 12:40:40;;;;;;;13.95;8.98;;;;;;;;;;5032277;28;20260;-66
2022/07/20 12:43:29;;;;;;;14.70;9.05;;;;;;;;;;5031017;28;20181;-66
2022/07/20 12:45:56;;;;;;;13.35;8.50;;;;;;;;;;5031991;28;20582;-68
2022/07/20 12:48:22;;;;;;;10.82;8.43;;;;;;;;;;5024147;28;20212;-69
2022/07/20 12:50:47;;;;;;;13.93;7.75;;;;;;;;;;5034402;28;20668;-69
2022/07/20 12:53:13;;;;;;;14.32;7.80;;;;;;;;;;5037390;28;20238;-71
2022/07/20 12:55:38;;;;;;;11.27;7.40;;;;;;;;;;5035265;28;20177;-68
2022/07/20 12:58:03;;;;;;;10.90;7.32;;;;;;;;;;5028682;28;20259;-68
2022/07/20 13:00:29;;;;;;;11.95;7.28;;;;;;;;;;5037141;28;20418;-68
2022/07/20 13:02:54;;;;;;;10.55;6.38;;;;;;;;;;5028818;28;20283;-68
2022/07/20 13:05:21;;;;;;;11.57;7.40;;;;;;;;;;5036296;28;20193;-68
2022/07/20 13:07:47;;;;;;;10.43;6.60;;;;;;;;;;5035451;28;20177;-69
2022/07/20 13:10:13;;;;;;;10.90;7.28;;;;;;;;;;5036655;28;20245;-70
2022/07/20 13:12:38;;;;;;;10.50;7.22;;;;;;;;;;5036561;28;20169;-69
2022/07/20 13:15:06;;;;;;;9.63;6.80;;;;;;;;;;5037858;28;20198;-69
2022/07/20 13:17:32;;;;;;;12.45;7.22;;;;;;;;;;5036189;28;20515;-68
2022/07/20 13:19:57;;;;;;;7.55;6.75;;;;;;;;;;5030087;28;20185;-68
2022/07/20 13:22:22;;;;;;;9.63;6.70;;;;;;;;;;5039663;28;20532;-68
2022/07/20 13:24:48;;;;;;;14.77;7.95;;;;;;;;;;5039161;28;20715;-68
2022/07/20 13:27:13;;;;;;;10.95;7.68;;;;;;;;;;5024096;28;20188;-68
2022/07/20 13:29:38;;;;;;;14.40;8.27;;;;;;;;;;5030111;28;20189;-69
2022/07/20 13:32:04;;;;;;;11.27;8.10;;;;;;;;;;4327424;28;10000719;-69
2022/07/20 13:34:29;;;;;;;9.75;7.72;;;;;;;;;;5019979;28;20280;-68
2022/07/20 13:36:55;;;;;;;11.73;8.48;;;;;;;;;;5020015;28;20661;-69
2022/07/20 13:39:20;;;;;;;15.18;7.95;;;;;;;;;;5016699;28;20284;-67
2022/07/20 13:41:46;;;;;;;11.00;7.60;;;;;;;;;;5022478;28;20200;-67
2022/07/20 13:44:12;;;;;;;11.40;8.05;;;;;;;;;;5014982;28;20182;-67
2022/07/20 13:46:37;;;;;;;11.75;8.15;;;;;;;;;;5022354;28;20640;-65
2022/07/20 13:49:03;;;;;;;14.30;7.70;;;;;;;;;;5029948;28;20172;-66
2022/07/20 13:51:29;;;;;;;10.88;8.23;;;;;;;;;;5025270;28;20189;-67
2022/07/20 13:53:54;;;;;;;12.63;7.47;;;;;;;;;;5034038;28;20173;-66
2022/07/20 13:56:20;;;;;;;16.38;7.97;;;;;;;;;;5014113;28;20291;-66
2022/07/20 13:58:45;;;;;;;10.10;7.47;;;;;;;;;;5018885;28;20300;-67
2022/07/20 14:01:11;;;;;;;11.60;7.50;;;;;;;;;;5027581;28;20192;-67
2022/07/20 14:03:36;;;;;;;9.82;8.18;;;;;;;;;;5019222;28;20296;-68
2022/07/20 14:06:02;;;;;;;15.73;8.10;;;;;;;;;;5019155;28;20202;-69
2022/07/20 14:08:28;;;;;;;11.80;7.20;;;;;;;;;;5017190;28;20198;-67
2022/07/20 14:10:53;;;;;;;11.50;7.13;;;;;;;;;;5022410;28;20192;-67
2022/07/20 14:13:19;;;;;;;9.88;7.45;;;;;;;;;;5018648;28;20231;-68
2022/07/20 14:15:45;;;;;;;9.68;7.28;;;;;;;;;;5032161;28;20264;-67
2022/07/20 14:18:11;;;;;;;9.43;6.53;;;;;;;;;;5036510;28;20307;-69
2022/07/20 14:20:36;;;;;;;11.27;7.18;;;;;;;;;;5037778;28;20181;-68
2022/07/20 14:23:02;;;;;;;9.85;6.82;;;;;;;;;;5043432;28;20200;-68
2022/07/20 14:25:27;;;;;;;8.18;6.88;;;;;;;;;;5040153;28;20209;-67
2022/07/20 14:27:53;;;;;;;10.20;6.80;;;;;;;;;;5042542;28;20227;-68
2022/07/20 14:30:18;;;;;;;10.85;6.40;;;;;;;;;;5042443;28;20725;-67